Time;durP1;ratioP1;P1;durP2;ratioP2;P2;SDS_P1;SDS_P2;PMS_P1;PMS_P2;Temp;Humidity;BMP_temperature;BMP_pressure;BME280_temperature;BME280_humidity;BME280_pressure;Samples;Min_cycle;Max_cycle;Signal;HPM_P1;HPM_P2
2023/04/09 00:00:47;;;;;;;10.10;9.20;;;;;;;7.15;100.00;100566.73;107421;1259;60482;-48
2023/04/09 00:03:21;;;;;;;13.40;11.40;;;;;;;7.13;100.00;100566.08;106422;1256;60482;-49
2023/04/09 00:05:49;;;;;;;15.30;11.70;;;;;;;7.10;100.00;100563.63;105604;1258;72448;-50
2023/04/09 00:08:17;;;;;;;13.70;11.60;;;;;;;7.06;100.00;100560.51;105829;1255;67229;-49
2023/04/09 00:10:46;;;;;;;11.80;10.60;;;;;;;7.01;100.00;100554.19;105487;1257;72139;-51
2023/04/09 00:13:14;;;;;;;16.20;10.80;;;;;;;6.96;100.00;100557.88;105371;1258;63074;-51
2023/04/09 00:15:47;;;;;;;17.10;12.10;;;;;;;6.93;100.00;100558.29;105298;1256;59727;-50
2023/04/09 00:18:17;;;;;;;14.10;10.60;;;;;;;6.90;100.00;100551.73;105299;1257;72922;-50
2023/04/09 00:20:46;;;;;;;20.00;11.30;;;;;;;6.88;100.00;100546.08;105508;1255;67124;-51
2023/04/09 00:23:14;;;;;;;14.70;13.30;;;;;;;6.85;100.00;100548.63;105203;1255;72192;-51
2023/04/09 00:25:42;;;;;;;14.40;12.50;;;;;;;6.80;100.00;100544.63;105247;1259;61021;-50
2023/04/09 00:28:10;;;;;;;14.60;11.00;;;;;;;6.72;100.00;100541.58;106755;1256;59647;-51
2023/04/09 00:30:38;;;;;;;12.80;11.50;;;;;;;6.65;100.00;100540.64;105374;1256;73251;-52
2023/04/09 00:33:06;;;;;;;13.50;11.90;;;;;;;6.61;100.00;100536.11;106269;1255;67543;-49
2023/04/09 00:35:36;;;;;;;18.80;11.30;;;;;;;6.58;100.00;100534.72;106359;1256;71807;-50
2023/04/09 00:38:04;;;;;;;14.70;10.40;;;;;;;6.56;100.00;100533.51;105955;1257;62337;-50
2023/04/09 00:40:32;;;;;;;10.80;9.80;;;;;;;6.55;100.00;100531.23;106293;1258;60531;-50
2023/04/09 00:43:01;;;;;;;12.80;10.30;;;;;;;6.55;100.00;100531.94;105295;1259;72663;-51
2023/04/09 00:45:29;;;;;;;12.60;10.00;;;;;;;6.53;100.00;100531.09;105632;1258;67310;-49
2023/04/09 00:47:57;;;;;;;11.80;9.80;;;;;;;6.51;100.00;100534.34;105963;1254;71871;-50
2023/04/09 00:50:25;;;;;;;11.70;10.50;;;;;;;6.47;100.00;100532.09;105754;1259;60984;-51
2023/04/09 00:52:54;;;;;;;10.30;9.30;;;;;;;6.43;100.00;100531.81;105248;1255;60013;-50
2023/04/09 00:55:22;;;;;;;15.50;9.80;;;;;;;6.40;100.00;100532.22;106197;1255;72148;-49
2023/04/09 00:57:52;;;;;;;12.10;10.40;;;;;;;6.38;100.00;100531.75;105103;1254;69569;-50
2023/04/09 01:00:20;;;;;;;10.90;9.00;;;;;;;6.38;100.00;100529.25;105357;1254;71472;-49
2023/04/09 01:02:51;;;;;;;12.60;9.60;;;;;;;6.36;100.00;100529.80;105509;1257;61036;-52
2023/04/09 01:05:20;;;;;;;12.90;10.30;;;;;;;6.34;100.00;100529.50;105823;1253;59687;-49
2023/04/09 01:08:04;;;;;;;13.30;10.40;;;;;;;6.32;100.00;100528.82;105285;1259;73711;-51
2023/04/09 01:10:40;;;;;;;15.60;11.30;;;;;;;6.30;100.00;100530.25;105257;1254;67680;-50
2023/04/09 01:13:14;;;;;;;11.80;10.50;;;;;;;6.30;100.00;100531.52;106030;1260;72953;-51
2023/04/09 01:15:53;;;;;;;17.20;11.10;;;;;;;6.28;100.00;100530.67;105300;1260;61454;-51
2023/04/09 01:18:29;;;;;;;16.20;11.70;;;;;;;6.26;100.00;100530.53;105533;1254;59643;-51
2023/04/09 01:21:06;;;;;;;13.40;9.50;;;;;;;6.23;100.00;100531.46;105097;1261;72204;-50
2023/04/09 01:23:53;;;;;;;14.10;11.50;;;;;;;6.19;100.00;100531.56;105057;1258;67276;-50
2023/04/09 01:26:35;;;;;;;13.10;10.40;;;;;;;6.14;100.00;100527.91;105277;1259;71769;-51
2023/04/09 01:29:04;;;;;;;11.40;10.10;;;;;;;6.09;100.00;100526.92;106516;1254;60583;-51
2023/04/09 01:31:37;;;;;;;15.40;10.20;;;;;;;6.05;100.00;100521.83;107931;1256;61197;-51
2023/04/09 01:34:09;;;;;;;11.80;10.60;;;;;;;6.00;100.00;100520.66;105542;1258;73190;-52
2023/04/09 01:36:38;;;;;;;15.90;10.90;;;;;;;5.94;100.00;100518.98;105318;1258;66256;-51
2023/04/09 01:39:06;;;;;;;11.50;10.40;;;;;;;5.91;100.00;100517.61;105331;1258;70772;-51
2023/04/09 01:41:35;;;;;;;11.70;10.20;;;;;;;5.88;100.00;100515.33;105293;1254;60610;-51
2023/04/09 01:44:03;;;;;;;14.50;9.40;;;;;;;5.87;100.00;100518.38;106991;1254;60615;-50
2023/04/09 01:46:33;;;;;;;18.30;10.30;;;;;;;5.87;100.00;100520.52;105199;1256;72240;-50
2023/04/09 01:49:01;;;;;;;11.50;9.70;;;;;;;5.86;100.00;100518.03;108750;1254;68525;-48
2023/04/09 01:51:32;;;;;;;11.60;10.40;;;;;;;5.87;100.00;100518.02;105326;1256;72406;-48
2023/04/09 01:54:00;;;;;;;14.90;9.00;;;;;;;5.87;100.00;100518.02;105226;1256;61742;-51
2023/04/09 01:56:45;;;;;;;12.00;9.30;;;;;;;5.88;100.00;100517.83;105318;1256;60206;-51
2023/04/09 01:59:16;;;;;;;13.40;9.00;;;;;;;5.89;100.00;100522.98;105183;1261;73300;-52
2023/04/09 02:01:46;;;;;;;10.20;9.20;;;;;;;5.88;100.00;100527.27;106890;1256;68605;-52
2023/04/09 02:04:22;;;;;;;10.60;9.60;;;;;;;5.86;100.00;100526.22;105139;1256;73581;-51
2023/04/09 02:07:09;;;;;;;9.50;8.50;;;;;;;5.85;100.00;100523.56;104965;1254;65151;-51
2023/04/09 02:09:38;;;;;;;9.20;8.20;;;;;;;5.84;100.00;100522.70;108762;1253;62265;-52
2023/04/09 02:12:09;;;;;;;20.30;11.40;;;;;;;5.84;100.00;100520.20;108727;1254;74209;-52
2023/04/09 02:14:45;;;;;;;11.60;9.60;;;;;;;5.82;100.00;100522.36;108691;1254;67359;-52
2023/04/09 02:17:12;;;;;;;12.90;10.00;;;;;;;5.81;100.00;100521.84;108835;1254;70691;-52
2023/04/09 02:19:42;;;;;;;11.40;8.50;;;;;;;5.79;100.00;100519.20;108887;1254;61269;-52
2023/04/09 02:22:16;;;;;;;10.70;8.70;;;;;;;5.78;100.00;100520.30;108841;1255;62420;-52
2023/04/09 02:24:45;;;;;;;10.40;8.80;;;;;;;5.77;100.00;100518.02;108827;1255;72946;-53
2023/04/09 02:27:13;;;;;;;10.80;9.70;;;;;;;5.76;100.00;100518.02;109012;1254;66140;-52
2023/04/09 02:29:42;;;;;;;12.80;11.50;;;;;;;5.77;100.00;100514.80;109015;1254;71581;-52
2023/04/09 02:32:10;;;;;;;19.20;11.50;;;;;;;5.77;100.00;100512.48;109052;1254;60212;-52
2023/04/09 02:34:42;;;;;;;13.90;12.60;;;;;;;5.74;100.00;100516.61;109017;1254;60468;-52
2023/04/09 02:37:10;;;;;;;14.10;12.60;;;;;;;5.70;100.00;100514.73;109040;1254;73491;-52
2023/04/09 02:39:38;;;;;;;12.80;11.50;;;;;;;5.67;100.00;100515.14;109061;1254;67441;-53
2023/04/09 02:42:08;;;;;;;12.60;10.90;;;;;;;5.65;100.00;100515.88;109035;1258;72133;-53
2023/04/09 02:44:36;;;;;;;15.50;12.10;;;;;;;5.63;100.00;100518.04;109031;1256;62297;-52
2023/04/09 02:47:08;;;;;;;16.70;13.00;;;;;;;5.61;100.00;100520.22;108875;1254;58232;-52
2023/04/09 02:49:38;;;;;;;15.90;11.20;;;;;;;5.59;100.00;100520.97;108915;1254;72508;-52
2023/04/09 02:52:06;;;;;;;16.50;11.00;;;;;;;5.54;100.00;100518.90;108860;1258;65537;-51
2023/04/09 02:54:34;;;;;;;14.00;12.30;;;;;;;5.49;100.00;100513.65;108917;1254;73924;-52
2023/04/09 02:57:02;;;;;;;13.20;11.70;;;;;;;5.47;100.00;100512.59;108985;1254;60098;-52
2023/04/09 02:59:31;;;;;;;15.50;10.50;;;;;;;5.46;100.00;100510.30;108669;1254;61309;-52
2023/04/09 03:02:01;;;;;;;14.70;10.50;;;;;;;5.45;100.00;100511.73;105153;1260;73013;-50
2023/04/09 03:04:29;;;;;;;11.80;10.40;;;;;;;5.44;100.00;100520.67;108776;1254;65516;-52
2023/04/09 03:06:57;;;;;;;10.50;9.40;;;;;;;5.44;100.00;100516.58;106582;1258;71693;-48
2023/04/09 03:09:25;;;;;;;13.70;10.50;;;;;;;5.43;100.00;100517.30;105288;1259;61988;-51
2023/04/09 03:11:55;;;;;;;10.90;9.40;;;;;;;5.42;100.00;100521.23;105425;1258;60590;-51
2023/04/09 03:14:23;;;;;;;12.00;10.60;;;;;;;5.41;100.00;100515.73;105625;1255;73181;-50
2023/04/09 03:16:54;;;;;;;14.70;11.20;;;;;;;5.41;100.00;100515.91;105438;1259;68881;-51
2023/04/09 03:19:23;;;;;;;18.90;13.10;;;;;;;5.42;100.00;100512.17;105503;1255;72820;-50
2023/04/09 03:21:51;;;;;;;13.40;11.50;;;;;;;5.42;100.00;100508.08;105992;1256;61451;-51
2023/04/09 03:24:21;;;;;;;17.30;13.20;;;;;;;5.41;100.00;100509.31;105349;1259;60420;-51
2023/04/09 03:26:49;;;;;;;21.70;15.70;;;;;;;5.39;100.00;100507.02;108069;1256;72952;-51
2023/04/09 03:29:25;;;;;;;17.60;15.00;;;;;;;5.38;100.00;100508.11;106062;1259;65204;-51
2023/04/09 03:31:53;;;;;;;17.20;14.80;;;;;;;5.37;100.00;100513.28;105862;1256;72916;-50
2023/04/09 03:34:21;;;;;;;15.90;13.40;;;;;;;5.37;100.00;100515.23;106342;1257;62588;-50
2023/04/09 03:36:53;;;;;;;15.20;11.70;;;;;;;5.38;100.00;100517.54;105721;1258;60351;-50
2023/04/09 03:39:30;;;;;;;15.90;12.30;;;;;;;5.40;100.00;100518.77;105239;1256;74381;-51
2023/04/09 03:42:06;;;;;;;17.00;10.90;;;;;;;5.41;100.00;100515.91;105032;1254;67939;-51
2023/04/09 03:44:42;;;;;;;14.00;12.50;;;;;;;5.42;100.00;100514.48;105098;1256;72374;-50
2023/04/09 03:47:14;;;;;;;13.90;10.60;;;;;;;5.41;100.00;100507.73;105273;1256;61980;-50
2023/04/09 03:49:45;;;;;;;12.80;11.20;;;;;;;5.40;100.00;100511.64;105367;1256;63753;-51
2023/04/09 03:52:23;;;;;;;13.00;10.90;;;;;;;5.41;100.00;100508.43;107794;1255;73625;-50
2023/04/09 03:55:10;;;;;;;18.60;10.90;;;;;;;5.43;100.00;100509.84;105243;1255;67903;-49
2023/04/09 03:57:38;;;;;;;15.10;10.70;;;;;;;5.45;100.00;100509.25;106089;1256;71966;-49
2023/04/09 04:00:12;;;;;;;11.50;10.20;;;;;;;5.48;100.00;100508.85;105977;1258;61745;-50
2023/04/09 04:03:14;;;;;;;12.20;10.50;;;;;;;5.52;100.00;100505.42;105035;1260;61329;-45
2023/04/09 04:06:08;;;;;;;10.80;9.50;;;;;;;5.53;100.00;100505.02;105393;1258;74007;-50
2023/04/09 04:08:53;;;;;;;11.40;8.50;;;;;;;5.55;100.00;100505.54;106945;1256;67707;-48
2023/04/09 04:11:25;;;;;;;12.30;10.50;;;;;;;5.58;100.00;100506.74;106403;1256;73750;-51
2023/04/09 04:13:54;;;;;;;14.10;10.10;;;;;;;5.61;100.00;100510.42;106627;1255;60886;-51
2023/04/09 04:16:24;;;;;;;13.70;10.50;;;;;;;5.65;100.00;100513.73;106644;1256;60422;-50
2023/04/09 04:18:52;;;;;;;15.80;11.20;;;;;;;5.70;100.00;100513.13;105189;1261;74250;-48
2023/04/09 04:21:21;;;;;;;16.40;13.00;;;;;;;5.76;100.00;100516.77;107418;1255;66720;-49
2023/04/09 04:23:55;;;;;;;17.10;12.10;;;;;;;5.82;100.00;100521.13;106088;1256;72985;-46
2023/04/09 04:26:27;;;;;;;13.20;11.30;;;;;;;5.88;100.00;100522.64;105597;1258;63087;-51
2023/04/09 04:28:55;;;;;;;13.20;11.40;;;;;;;5.95;100.00;100526.09;105466;1254;60447;-50
2023/04/09 04:31:52;;;;;;;13.50;12.10;;;;;;;6.05;100.00;100530.55;105617;1256;73693;-51
2023/04/09 04:34:21;;;;;;;11.90;10.70;;;;;;;6.12;100.00;100531.14;105387;1256;66952;-49
2023/04/09 04:36:56;;;;;;;13.20;11.80;;;;;;;6.20;100.00;100529.41;105568;1256;72833;-51
2023/04/09 04:39:30;;;;;;;12.70;11.00;;;;;;;6.28;100.00;100528.89;105302;1259;62692;-51
2023/04/09 04:42:02;;;;;;;13.70;11.30;;;;;;;6.37;100.00;100527.30;105275;1256;60845;-51
2023/04/09 04:44:30;;;;;;;15.60;11.10;;;;;;;6.46;100.00;100524.98;105332;1258;73077;-49
2023/04/09 04:47:28;;;;;;;11.60;10.00;;;;;;;6.58;100.00;100528.83;105437;1259;67568;-51
2023/04/09 04:49:58;;;;;;;13.20;9.20;;;;;;;6.69;100.00;100525.23;105972;1258;72926;-52
2023/04/09 04:52:29;;;;;;;11.90;9.50;;;;;;;6.80;100.00;100526.98;105338;1261;62478;-49
2023/04/09 04:54:57;;;;;;;11.20;9.20;;;;;;;6.90;100.00;100530.33;105305;1256;60438;-52
2023/04/09 04:57:25;;;;;;;11.10;9.50;;;;;;;7.00;100.00;100533.16;105355;1257;72543;-50
2023/04/09 04:59:59;;;;;;;12.90;10.80;;;;;;;7.08;100.00;100535.48;105285;1256;66105;-51
2023/04/09 05:02:27;;;;;;;15.00;10.60;;;;;;;7.18;100.00;100536.51;108157;1258;72652;-50
2023/04/09 05:05:15;;;;;;;12.20;10.70;;;;;;;7.31;100.00;100542.46;105502;1259;61670;-47
2023/04/09 05:07:57;;;;;;;13.80;10.60;;;;;;;7.42;100.00;100544.35;105277;1256;61387;-47
2023/04/09 05:10:25;;;;;;;14.60;11.60;;;;;;;7.54;100.00;100547.46;104854;1257;71781;-48
2023/04/09 05:13:03;;;;;;;11.00;9.20;;;;;;;7.69;100.00;100548.73;104800;1256;67120;-49
2023/04/09 05:15:42;;;;;;;11.30;10.20;;;;;;;7.84;100.00;100549.44;104935;1261;75576;-46
2023/04/09 05:18:10;;;;;;;12.00;9.30;;;;;;;7.98;100.00;100547.83;105246;1260;62079;-48
2023/04/09 05:20:39;;;;;;;9.80;8.70;;;;;;;8.12;100.00;100550.86;105138;1260;60435;-51
2023/04/09 05:23:11;;;;;;;9.90;8.50;;;;;;;8.28;100.00;100553.48;109061;1254;74921;-47
2023/04/09 05:25:47;;;;;;;9.80;7.70;;;;;;;8.44;100.00;100558.48;109017;1256;66001;-47
2023/04/09 05:28:25;;;;;;;14.50;7.60;;;;;;;8.57;100.00;100562.58;108967;1256;72601;-48
2023/04/09 05:31:11;;;;;;;10.70;7.40;;;;;;;8.67;100.00;100565.50;108829;1259;63217;-48
2023/04/09 05:33:43;;;;;;;13.90;6.30;;;;;;;8.77;100.00;100567.56;108915;1256;59793;-50
2023/04/09 05:36:16;;;;;;;6.70;5.40;;;;;;;8.86;100.00;100570.89;108889;1256;74747;-47
2023/04/09 05:38:45;;;;;;;7.90;6.20;;;;;;;8.95;100.00;100571.88;108869;1254;67536;-49
2023/04/09 05:41:13;;;;;;;11.70;5.90;;;;;;;9.04;100.00;100567.50;108647;1254;72022;-49
2023/04/09 05:43:50;;;;;;;7.10;6.20;;;;;;;9.13;100.00;100574.58;109013;1254;59539;-47
2023/04/09 05:46:19;;;;;;;4.90;4.50;;;;;;;9.20;100.00;100577.05;108891;1259;59134;-48
2023/04/09 05:48:49;;;;;;;5.20;4.70;;;;;;;9.28;100.00;100580.42;108817;1256;72385;-47
2023/04/09 05:51:18;;;;;;;8.50;5.60;;;;;;;9.36;100.00;100580.88;109006;1254;67591;-48
2023/04/09 05:53:48;;;;;;;6.70;5.30;;;;;;;9.44;100.00;100580.82;108935;1256;71768;-48
2023/04/09 05:56:18;;;;;;;10.20;5.70;;;;;;;9.49;100.00;100582.28;109033;1256;60033;-48
2023/04/09 05:58:51;;;;;;;8.30;5.00;;;;;;;9.56;100.00;100588.70;108852;1254;60972;-47
2023/04/09 06:01:21;;;;;;;9.20;5.40;;;;;;;9.62;100.00;100589.59;108851;1256;74270;-48
2023/04/09 06:03:49;;;;;;;11.80;5.40;;;;;;;9.67;100.00;100590.13;108823;1256;65737;-48
2023/04/09 06:06:17;;;;;;;7.10;4.80;;;;;;;9.74;100.00;100596.73;109048;1254;73766;-47
2023/04/09 06:08:47;;;;;;;6.80;5.10;;;;;;;9.80;100.00;100595.81;109034;1256;60046;-48
2023/04/09 06:11:15;;;;;;;6.60;5.40;;;;;;;9.85;100.00;100599.08;107889;1254;60505;-49
2023/04/09 06:13:44;;;;;;;10.00;5.10;;;;;;;9.92;100.00;100600.10;107865;1258;71980;-49
2023/04/09 06:16:13;;;;;;;8.20;4.90;;;;;;;9.99;100.00;100600.04;105354;1257;67604;-47
2023/04/09 06:18:41;;;;;;;8.20;4.60;;;;;;;10.08;100.00;100603.34;105607;1254;71913;-48
2023/04/09 06:21:09;;;;;;;8.20;5.50;;;;;;;10.17;100.00;100602.50;105007;1259;61624;-48
2023/04/09 06:23:39;;;;;;;5.90;5.30;;;;;;;10.30;100.00;100609.29;105415;1259;60515;-49
2023/04/09 06:26:07;;;;;;;8.30;4.80;;;;;;;10.42;100.00;100620.33;105623;1259;73136;-50
2023/04/09 06:28:35;;;;;;;4.30;4.00;;;;;;;10.55;100.00;100623.32;105337;1258;66796;-49
2023/04/09 06:31:07;;;;;;;11.20;3.90;;;;;;;10.68;100.00;100625.54;105522;1259;73037;-49
2023/04/09 06:33:35;;;;;;;3.70;3.30;;;;;;;10.82;100.00;100630.63;105582;1259;61925;-51
2023/04/09 06:36:04;;;;;;;6.80;4.00;;;;;;;10.97;100.00;100636.19;106581;1254;60515;-47
2023/04/09 06:38:32;;;;;;;5.00;4.60;;;;;;;11.15;100.00;100637.84;105373;1256;73285;-52
2023/04/09 06:41:00;;;;;;;5.70;3.90;;;;;;;11.33;100.00;100636.83;105607;1258;67225;-50
2023/04/09 06:43:35;;;;;;;7.90;3.90;;;;;;;11.50;100.00;100638.54;105311;1260;70738;-46
2023/04/09 06:46:03;;;;;;;6.20;3.10;;;;;;;11.64;100.00;100637.96;105571;1259;60784;-50
2023/04/09 06:48:31;;;;;;;4.60;3.50;;;;;;;11.79;100.00;100639.39;105417;1259;60664;-52
2023/04/09 06:51:03;;;;;;;5.30;2.40;;;;;;;11.94;100.00;100647.25;105379;1260;72097;-52
2023/04/09 06:53:31;;;;;;;5.80;2.70;;;;;;;12.07;100.00;100653.73;105422;1258;66850;-52
2023/04/09 06:56:02;;;;;;;2.90;2.40;;;;;;;12.22;100.00;100655.51;105508;1254;74068;-47
2023/04/09 06:58:30;;;;;;;3.90;2.40;;;;;;;12.38;100.00;100662.58;105499;1258;60370;-48
2023/04/09 07:00:59;;;;;;;5.30;2.70;;;;;;;12.52;100.00;100664.48;106372;1256;60499;-50
2023/04/09 07:03:29;;;;;;;5.90;2.40;;;;;;;12.66;100.00;100667.89;105424;1257;73778;-48
2023/04/09 07:05:57;;;;;;;5.70;2.60;;;;;;;12.77;100.00;100675.86;105532;1259;67429;-50
2023/04/09 07:08:25;;;;;;;3.60;1.60;;;;;;;12.84;100.00;100681.50;105524;1258;71314;-51
2023/04/09 07:10:58;;;;;;;3.20;1.80;;;;;;;12.91;100.00;100682.64;105556;1257;60513;-50
2023/04/09 07:13:27;;;;;;;4.70;2.00;;;;;;;12.98;100.00;100680.91;105987;1253;60511;-50
2023/04/09 07:16:00;;;;;;;7.90;2.00;;;;;;;13.03;100.00;100687.34;105406;1254;73401;-51
2023/04/09 07:18:30;;;;;;;4.40;2.00;;;;;;;12.99;100.00;100684.81;105529;1257;66788;-49
2023/04/09 07:20:59;;;;;;;2.30;1.30;;;;;;;13.00;100.00;100688.95;105324;1257;72867;-50
2023/04/09 07:23:28;;;;;;;6.30;1.50;;;;;;;13.05;100.00;100688.30;105181;1255;61926;-48
2023/04/09 07:25:56;;;;;;;3.40;1.40;;;;;;;13.14;100.00;100688.69;105258;1253;60423;-46
2023/04/09 07:28:24;;;;;;;4.30;1.60;;;;;;;13.21;100.00;100692.31;105209;1256;73070;-49
2023/04/09 07:30:52;;;;;;;2.70;1.40;;;;;;;13.30;100.00;100697.36;105129;1259;65586;-48
2023/04/09 07:33:40;;;;;;;4.80;1.00;;;;;;;13.40;100.00;100703.40;105155;1257;73232;-52
2023/04/09 07:36:09;;;;;;;6.30;1.20;;;;;;;13.48;100.00;100705.58;104936;1253;60500;-52
2023/04/09 07:38:37;;;;;;;6.40;1.00;;;;;;;13.52;100.00;100711.31;105030;1253;60522;-48
2023/04/09 07:41:10;;;;;;;2.40;0.80;;;;;;;13.58;100.00;100714.30;105087;1254;72602;-50
2023/04/09 07:43:39;;;;;;;3.30;1.20;;;;;;;13.61;100.00;100711.07;105289;1258;65262;-52
2023/04/09 07:46:07;;;;;;;2.30;0.90;;;;;;;13.65;100.00;100714.52;105746;1257;75698;-51
2023/04/09 07:48:35;;;;;;;5.80;1.00;;;;;;;13.70;100.00;100715.36;105391;1257;60533;-48
2023/04/09 07:51:04;;;;;;;5.20;1.10;;;;;;;13.74;100.00;100715.21;105733;1258;60516;-50
2023/04/09 07:53:35;;;;;;;2.80;0.90;;;;;;;13.74;100.00;100714.84;105337;1254;73029;-49
2023/04/09 07:56:04;;;;;;;1.80;0.80;;;;;;;13.74;100.00;100721.31;107750;1257;66173;-48
2023/04/09 07:58:32;;;;;;;2.60;0.90;;;;;;;13.80;100.00;100720.30;105464;1254;71860;-50
2023/04/09 08:01:00;;;;;;;3.50;0.80;;;;;;;13.90;100.00;100724.17;105253;1258;60575;-48
2023/04/09 08:03:28;;;;;;;2.40;0.70;;;;;;;14.01;100.00;100722.03;106850;1258;60419;-49
2023/04/09 08:05:56;;;;;;;2.80;0.90;;;;;;;14.13;100.00;100724.52;105332;1252;72108;-48
2023/04/09 08:08:34;;;;;;;3.70;0.90;;;;;;;14.26;100.00;100734.36;105481;1259;65081;-50
2023/04/09 08:11:02;;;;;;;5.50;1.00;;;;;;;14.39;100.00;100735.05;107012;1253;73294;-49
2023/04/09 08:13:30;;;;;;;1.30;0.70;;;;;;;14.46;100.00;100737.77;107536;1256;60531;-47
2023/04/09 08:16:02;;;;;;;3.50;0.70;;;;;;;14.47;100.00;100741.70;105763;1257;60871;-50
2023/04/09 08:18:31;;;;;;;6.20;0.90;;;;;;;14.49;100.00;100743.42;105472;1254;73406;-51
2023/04/09 08:21:03;;;;;;;4.80;1.10;;;;;;;14.54;100.00;100743.71;105439;1254;67283;-50
2023/04/09 08:23:34;;;;;;;0.90;0.70;;;;;;;14.58;100.00;100747.66;105540;1257;72578;-48
2023/04/09 08:26:02;;;;;;;2.80;0.90;;;;;;;14.63;100.00;100745.09;105519;1257;60734;-51
2023/04/09 08:28:30;;;;;;;2.50;0.80;;;;;;;14.66;100.00;100741.27;106989;1256;61127;-52
2023/04/09 08:31:00;;;;;;;2.00;1.00;;;;;;;14.68;100.00;100739.03;107284;1255;73409;-49
2023/04/09 08:33:29;;;;;;;3.90;0.90;;;;;;;14.73;100.00;100743.31;105715;1257;67352;-50
2023/04/09 08:35:57;;;;;;;2.00;0.80;;;;;;;14.79;100.00;100749.52;105498;1259;71419;-50
2023/04/09 08:38:28;;;;;;;4.40;0.90;;;;;;;14.86;100.00;100746.11;105544;1259;60633;-47
2023/04/09 08:40:56;;;;;;;3.80;0.90;;;;;;;14.91;100.00;100752.48;105396;1254;60492;-51
2023/04/09 08:43:24;;;;;;;2.30;0.80;;;;;;;14.95;100.00;100750.89;109079;1256;74305;-51
2023/04/09 08:46:14;;;;;;;2.00;0.90;;;;;;;14.92;100.00;100757.32;108937;1254;67800;-49
2023/04/09 08:48:46;;;;;;;3.90;1.60;;;;;;;14.91;100.00;100752.12;109155;1254;73248;-49
2023/04/09 08:51:15;;;;;;;2.50;0.90;;;;;;;14.91;100.00;100751.61;109149;1256;60157;-49
2023/04/09 08:53:49;;;;;;;3.50;0.80;;;;;;;14.89;100.00;100748.98;109141;1254;59740;-50
2023/04/09 08:56:17;;;;;;;2.80;0.60;;;;;;;14.88;100.00;100747.45;109089;1254;72868;-50
2023/04/09 08:58:45;;;;;;;2.10;0.60;;;;;;;14.87;100.00;100747.67;109168;1253;68440;-50
2023/04/09 09:01:33;;;;;;;2.80;0.70;;;;;;;14.86;100.00;100752.41;109087;1254;71408;-52
2023/04/09 09:04:05;;;;;;;3.60;0.70;;;;;;;14.85;100.00;100759.67;109073;1255;59465;-52
2023/04/09 09:06:37;;;;;;;1.90;0.70;;;;;;;14.83;100.00;100754.73;108941;1255;59191;-52
2023/04/09 09:09:11;;;;;;;1.20;0.50;;;;;;;14.80;100.00;100748.39;108837;1258;72091;-52
2023/04/09 09:11:41;;;;;;;3.20;0.90;;;;;;;14.76;100.00;100748.21;108830;1260;65241;-50
2023/04/09 09:14:10;;;;;;;3.50;1.40;;;;;;;14.75;100.00;100748.26;108931;1256;72217;-51
2023/04/09 09:16:58;;;;;;;4.10;0.90;;;;;;;14.76;100.00;100754.16;108860;1260;63296;-50
2023/04/09 09:19:26;;;;;;;2.60;0.70;;;;;;;14.79;100.00;100755.84;108885;1254;60197;-50
2023/04/09 09:22:01;;;;;;;2.20;0.90;;;;;;;14.82;100.00;100754.56;108913;1254;75045;-49
2023/04/09 09:24:31;;;;;;;2.70;0.80;;;;;;;14.87;100.00;100752.36;105929;1259;66902;-47
2023/04/09 09:27:00;;;;;;;2.20;0.70;;;;;;;14.92;100.00;100751.56;108749;1260;73778;-51
2023/04/09 09:29:28;;;;;;;6.90;1.00;;;;;;;14.99;100.00;100749.77;105758;1260;61396;-50
2023/04/09 09:31:56;;;;;;;1.90;0.70;;;;;;;15.04;100.00;100746.80;108761;1254;60354;-52
2023/04/09 09:34:24;;;;;;;2.20;0.90;;;;;;;15.09;100.00;100747.79;108760;1258;71848;-50
2023/04/09 09:36:52;;;;;;;2.00;0.80;;;;;;;15.15;100.00;100743.89;106130;1260;66140;-50
2023/04/09 09:39:21;;;;;;;2.30;0.80;;;;;;;15.22;100.00;100743.16;106533;1260;73886;-51
2023/04/09 09:41:50;;;;;;;1.40;0.80;;;;;;;15.27;100.00;100739.27;108525;1255;61484;-47
2023/04/09 09:44:31;;;;;;;3.70;0.70;;;;;;;15.31;100.00;100740.14;105633;1260;61689;-49
2023/04/09 09:46:59;;;;;;;5.10;0.90;;;;;;;15.37;100.00;100740.76;105336;1259;75050;-52
2023/04/09 09:49:27;;;;;;;1.60;0.70;;;;;;;15.40;100.00;100739.11;106098;1262;67942;-49
2023/04/09 09:51:56;;;;;;;1.50;0.90;;;;;;;15.42;100.00;100743.56;106084;1258;72901;-48
2023/04/09 09:54:32;;;;;;;2.70;0.80;;;;;;;15.40;100.00;100742.89;105520;1260;60472;-49
2023/04/09 09:57:00;;;;;;;3.90;0.90;;;;;;;15.39;100.00;100743.16;106109;1257;60536;-48
2023/04/09 09:59:31;;;;;;;3.70;0.80;;;;;;;15.39;100.00;100746.42;105256;1257;73837;-48
2023/04/09 10:02:03;;;;;;;0.90;0.70;;;;;;;15.39;100.00;100738.48;105247;1260;68124;-50
2023/04/09 10:04:34;;;;;;;2.00;0.70;;;;;;;15.42;100.00;100738.30;105292;1255;72570;-50
2023/04/09 10:07:04;;;;;;;2.20;0.90;;;;;;;15.50;100.00;100736.77;106700;1258;60903;-48
2023/04/09 10:09:40;;;;;;;1.80;0.80;;;;;;;15.61;100.00;100738.41;105748;1258;60284;-50
2023/04/09 10:12:10;;;;;;;3.70;0.80;;;;;;;15.67;100.00;100738.95;106191;1255;73760;-52
2023/04/09 10:14:41;;;;;;;7.10;0.80;;;;;;;15.72;100.00;100734.73;105269;1260;66840;-52
2023/04/09 10:17:10;;;;;;;3.10;1.20;;;;;;;15.67;100.00;100732.82;105319;1254;72532;-49
2023/04/09 10:19:43;;;;;;;3.30;1.00;;;;;;;15.64;100.00;100735.02;107678;1258;239878;-50
2023/04/09 10:23:15;;;;;;;2.70;0.80;;;;;;;15.58;100.00;100759.35;102036;1290;600413;-51
2023/04/09 10:25:43;;;;;;;5.40;0.70;;;;;;;15.59;100.00;100794.58;107684;1269;59723;-51
2023/04/09 10:28:16;;;;;;;1.60;0.70;;;;;;;15.63;100.00;100779.20;104778;1271;60777;-50
2023/04/09 10:30:45;;;;;;;2.90;0.80;;;;;;;15.69;100.00;100771.44;105624;1267;70401;-52
2023/04/09 10:33:27;;;;;;;1.70;0.70;;;;;;;15.74;100.00;100764.84;104857;1273;65982;-51
2023/04/09 10:36:01;;;;;;;1.30;0.70;;;;;;;15.81;100.00;100763.00;105007;1271;189287;-47
2023/04/09 10:38:34;;;;;;;6.00;0.60;;;;;;;15.88;100.00;100761.19;105182;1267;59676;-51
2023/04/09 10:41:07;;;;;;;0.80;0.60;;;;;;;15.92;100.00;100755.91;104871;1262;61177;-50
2023/04/09 10:43:37;;;;;;;2.00;0.60;;;;;;;15.97;100.00;100747.86;105503;1257;70632;-51
2023/04/09 10:46:25;;;;;;;5.10;0.80;;;;;;;16.02;100.00;100749.59;106540;1254;67488;-50
2023/04/09 10:49:11;;;;;;;0.70;0.50;;;;;;;16.05;100.00;100751.37;106081;1251;71347;-50
2023/04/09 10:51:40;;;;;;;3.60;0.60;;;;;;;16.05;100.00;100744.84;106016;1256;59757;-49
2023/04/09 10:54:33;;;;;;;1.90;0.60;;;;;;;16.00;100.00;100733.20;105986;1257;59586;-49
2023/04/09 10:57:20;;;;;;;2.20;0.50;;;;;;;15.92;100.00;100735.27;105723;1256;71461;-51
2023/04/09 10:59:51;;;;;;;3.30;0.70;;;;;;;15.92;100.00;100730.41;105746;1257;67040;-51
2023/04/09 11:02:37;;;;;;;1.50;0.50;;;;;;;15.87;100.00;100721.98;105715;1251;73109;-50
2023/04/09 11:05:15;;;;;;;4.50;0.60;;;;;;;15.82;100.00;100724.58;105699;1256;59669;-50
2023/04/09 11:08:11;;;;;;;2.30;0.90;;;;;;;15.85;100.00;100711.04;105617;1251;59321;-49
2023/04/09 11:10:41;;;;;;;1.30;0.60;;;;;;;15.88;100.00;100704.52;105439;1258;74038;-49
2023/04/09 11:13:16;;;;;;;3.90;0.70;;;;;;;15.94;100.00;100704.77;107743;1255;66757;-50
2023/04/09 11:15:46;;;;;;;2.00;0.60;;;;;;;15.97;100.00;100700.42;105757;1252;71384;-52
2023/04/09 11:18:26;;;;;;;2.90;0.70;;;;;;;16.02;100.00;100696.89;105609;1256;60618;-51
2023/04/09 11:21:15;;;;;;;4.50;0.60;;;;;;;16.09;100.00;100699.77;105935;1254;60588;-50
2023/04/09 11:23:52;;;;;;;1.30;0.60;;;;;;;16.15;100.00;100697.75;105646;1254;76426;-51
2023/04/09 11:26:34;;;;;;;1.90;0.70;;;;;;;16.22;100.00;100694.86;105625;1258;67384;-51
2023/04/09 11:29:08;;;;;;;4.10;0.80;;;;;;;16.24;100.00;100694.73;105482;1254;72149;-50